sensor_id;sensor_type;location;lat;lon;timestamp;temperature;humidity
49032;DHT22;63443;48.366;10.876;2023-03-20T00:02:07;11.00;99.90
49032;DHT22;63443;48.366;10.876;2023-03-20T00:04:35;11.00;99.90
49032;DHT22;63443;48.366;10.876;2023-03-20T00:07:00;11.00;99.90
49032;DHT22;63443;48.366;10.876;2023-03-20T00:09:26;10.90;99.90
49032;DHT22;63443;48.366;10.876;2023-03-20T00:11:52;11.00;99.90
49032;DHT22;63443;48.366;10.876;2023-03-20T00:14:20;10.90;99.90
49032;DHT22;63443;48.366;10.876;2023-03-20T00:16:47;11.00;99.90
49032;DHT22;63443;48.366;10.876;2023-03-20T00:19:14;11.00;99.90
49032;DHT22;63443;48.366;10.876;2023-03-20T00:21:40;11.00;99.90
49032;DHT22;63443;48.366;10.876;2023-03-20T00:24:06;10.90;99.90
49032;DHT22;63443;48.366;10.876;2023-03-20T00:26:35;10.90;99.90
49032;DHT22;63443;48.366;10.876;2023-03-20T00:29:04;11.00;99.90
49032;DHT22;63443;48.366;10.876;2023-03-20T00:31:38;11.00;99.90
49032;DHT22;63443;48.366;10.876;2023-03-20T00:34:09;11.00;99.90
49032;DHT22;63443;48.366;10.876;2023-03-20T00:36:36;11.10;99.90
49032;DHT22;63443;48.366;10.876;2023-03-20T00:39:02;11.10;99.90
49032;DHT22;63443;48.366;10.876;2023-03-20T00:46:52;11.00;99.90
49032;DHT22;63443;48.366;10.876;2023-03-20T00:49:22;11.00;99.90
49032;DHT22;63443;48.366;10.876;2023-03-20T00:51:48;11.00;99.90
49032;DHT22;63443;48.366;10.876;2023-03-20T00:54:16;11.00;99.90
49032;DHT22;63443;48.366;10.876;2023-03-20T00:56:44;11.00;99.90
49032;DHT22;63443;48.366;10.876;2023-03-20T00:59:16;11.10;99.90
49032;DHT22;63443;48.366;10.876;2023-03-20T01:01:43;11.10;99.90
49032;DHT22;63443;48.366;10.876;2023-03-20T01:04:12;11.20;99.90
49032;DHT22;63443;48.366;10.876;2023-03-20T01:06:38;11.20;99.90
49032;DHT22;63443;48.366;10.876;2023-03-20T01:09:04;11.20;99.90
49032;DHT22;63443;48.366;10.876;2023-03-20T01:11:29;11.20;99.90
49032;DHT22;63443;48.366;10.876;2023-03-20T01:13:56;11.20;99.90
49032;DHT22;63443;48.366;10.876;2023-03-20T01:16:23;11.20;99.90
49032;DHT22;63443;48.366;10.876;2023-03-20T01:18:50;11.20;99.90
49032;DHT22;63443;48.366;10.876;2023-03-20T01:21:16;11.20;99.90
49032;DHT22;63443;48.366;10.876;2023-03-20T01:23:42;11.10;99.90
49032;DHT22;63443;48.366;10.876;2023-03-20T01:26:31;11.20;99.90
49032;DHT22;63443;48.366;10.876;2023-03-20T01:28:54;11.10;99.90
49032;DHT22;63443;48.366;10.876;2023-03-20T01:31:19;11.10;99.90
49032;DHT22;63443;48.366;10.876;2023-03-20T01:33:45;11.00;99.90
49032;DHT22;63443;48.366;10.876;2023-03-20T01:36:13;11.00;99.90
49032;DHT22;63443;48.366;10.876;2023-03-20T01:38:39;10.90;99.90
49032;DHT22;63443;48.366;10.876;2023-03-20T01:41:11;10.90;99.90
49032;DHT22;63443;48.366;10.876;2023-03-20T01:43:37;11.00;99.90
49032;DHT22;63443;48.366;10.876;2023-03-20T01:51:20;10.90;99.90
49032;DHT22;63443;48.366;10.876;2023-03-20T01:53:50;10.90;99.90
49032;DHT22;63443;48.366;10.876;2023-03-20T01:56:19;11.00;99.90
49032;DHT22;63443;48.366;10.876;2023-03-20T01:58:50;10.90;99.90
49032;DHT22;63443;48.366;10.876;2023-03-20T02:01:18;10.90;99.90
49032;DHT22;63443;48.366;10.876;2023-03-20T02:03:47;11.00;99.90
49032;DHT22;63443;48.366;10.876;2023-03-20T02:06:14;11.00;99.90
49032;DHT22;63443;48.366;10.876;2023-03-20T02:08:50;10.90;99.90
49032;DHT22;63443;48.366;10.876;2023-03-20T02:11:19;10.90;99.90
49032;DHT22;63443;48.366;10.876;2023-03-20T02:13:45;10.80;99.90
49032;DHT22;63443;48.366;10.876;2023-03-20T02:16:13;10.80;99.90
49032;DHT22;63443;48.366;10.876;2023-03-20T02:18:42;10.80;99.90
49032;DHT22;63443;48.366;10.876;2023-03-20T02:26:52;10.80;99.90
49032;DHT22;63443;48.366;10.876;2023-03-20T02:32:29;10.80;99.90
49032;DHT22;63443;48.366;10.876;2023-03-20T02:35:52;10.80;99.90
49032;DHT22;63443;48.366;10.876;2023-03-20T02:43:17;10.70;99.90
49032;DHT22;63443;48.366;10.876;2023-03-20T02:45:48;10.60;99.90
49032;DHT22;63443;48.366;10.876;2023-03-20T02:51:13;10.60;99.90
49032;DHT22;63443;48.366;10.876;2023-03-20T02:53:51;10.50;99.90
49032;DHT22;63443;48.366;10.876;2023-03-20T02:56:19;10.50;99.90
49032;DHT22;63443;48.366;10.876;2023-03-20T02:58:47;10.50;99.90
49032;DHT22;63443;48.366;10.876;2023-03-20T03:01:22;10.40;99.90
49032;DHT22;63443;48.366;10.876;2023-03-20T03:03:55;10.40;99.90
49032;DHT22;63443;48.366;10.876;2023-03-20T03:06:28;10.40;99.90
49032;DHT22;63443;48.366;10.876;2023-03-20T03:08:56;10.40;99.90
49032;DHT22;63443;48.366;10.876;2023-03-20T03:11:24;10.30;99.90
49032;DHT22;63443;48.366;10.876;2023-03-20T03:13:51;10.20;99.90
49032;DHT22;63443;48.366;10.876;2023-03-20T03:16:18;10.20;99.90
49032;DHT22;63443;48.366;10.876;2023-03-20T03:18:45;10.10;99.90
49032;DHT22;63443;48.366;10.876;2023-03-20T03:21:11;10.10;99.90
49032;DHT22;63443;48.366;10.876;2023-03-20T03:23:41;10.00;99.90
49032;DHT22;63443;48.366;10.876;2023-03-20T03:26:09;10.00;99.90
49032;DHT22;63443;48.366;10.876;2023-03-20T03:28:37;10.00;99.90
49032;DHT22;63443;48.366;10.876;2023-03-20T03:31:05;10.00;99.90
49032;DHT22;63443;48.366;10.876;2023-03-20T03:33:33;9.90;99.90
49032;DHT22;63443;48.366;10.876;2023-03-20T03:38:33;9.90;99.90
49032;DHT22;63443;48.366;10.876;2023-03-20T03:43:29;9.90;99.90
49032;DHT22;63443;48.366;10.876;2023-03-20T03:45:57;9.90;99.90
49032;DHT22;63443;48.366;10.876;2023-03-20T03:48:29;9.90;99.90
49032;DHT22;63443;48.366;10.876;2023-03-20T03:50:58;9.90;99.90
49032;DHT22;63443;48.366;10.876;2023-03-20T03:53:27;9.80;99.90
49032;DHT22;63443;48.366;10.876;2023-03-20T03:56:00;9.70;99.90
49032;DHT22;63443;48.366;10.876;2023-03-20T03:58:30;9.70;99.90
49032;DHT22;63443;48.366;10.876;2023-03-20T04:00:58;9.70;99.90
49032;DHT22;63443;48.366;10.876;2023-03-20T04:03:26;9.70;99.90
49032;DHT22;63443;48.366;10.876;2023-03-20T04:05:53;9.60;99.90
49032;DHT22;63443;48.366;10.876;2023-03-20T04:08:19;9.70;99.90
49032;DHT22;63443;48.366;10.876;2023-03-20T04:10:45;9.70;99.90
49032;DHT22;63443;48.366;10.876;2023-03-20T04:13:10;9.70;99.90
49032;DHT22;63443;48.366;10.876;2023-03-20T04:15:36;9.60;99.90
49032;DHT22;63443;48.366;10.876;2023-03-20T04:18:03;9.70;99.90
49032;DHT22;63443;48.366;10.876;2023-03-20T04:20:28;9.50;99.90
49032;DHT22;63443;48.366;10.876;2023-03-20T04:22:54;9.50;99.90
49032;DHT22;63443;48.366;10.876;2023-03-20T04:25:20;9.50;99.90
49032;DHT22;63443;48.366;10.876;2023-03-20T04:27:46;9.50;99.90
49032;DHT22;63443;48.366;10.876;2023-03-20T04:30:12;9.50;99.90
49032;DHT22;63443;48.366;10.876;2023-03-20T04:32:37;9.50;99.90
49032;DHT22;63443;48.366;10.876;2023-03-20T04:35:03;9.50;99.90
49032;DHT22;63443;48.366;10.876;2023-03-20T04:37:28;9.50;99.90
49032;DHT22;63443;48.366;10.876;2023-03-20T04:39:54;9.50;99.90
49032;DHT22;63443;48.366;10.876;2023-03-20T04:42:20;9.50;99.90
49032;DHT22;63443;48.366;10.876;2023-03-20T04:44:45;9.50;99.90
49032;DHT22;63443;48.366;10.876;2023-03-20T04:47:11;9.40;99.90
49032;DHT22;63443;48.366;10.876;2023-03-20T04:49:36;9.40;99.90
49032;DHT22;63443;48.366;10.876;2023-03-20T04:52:02;9.40;99.90
49032;DHT22;63443;48.366;10.876;2023-03-20T04:54:27;9.50;99.90
49032;DHT22;63443;48.366;10.876;2023-03-20T04:56:52;9.50;99.90
49032;DHT22;63443;48.366;10.876;2023-03-20T04:59:18;9.40;99.90
49032;DHT22;63443;48.366;10.876;2023-03-20T05:01:43;9.40;99.90
49032;DHT22;63443;48.366;10.876;2023-03-20T05:04:09;9.40;99.90
49032;DHT22;63443;48.366;10.876;2023-03-20T05:06:34;9.40;99.90
49032;DHT22;63443;48.366;10.876;2023-03-20T05:09:00;9.40;99.90
49032;DHT22;63443;48.366;10.876;2023-03-20T05:11:26;9.40;99.90
49032;DHT22;63443;48.366;10.876;2023-03-20T05:13:51;9.40;99.90
49032;DHT22;63443;48.366;10.876;2023-03-20T05:16:17;9.40;99.90
49032;DHT22;63443;48.366;10.876;2023-03-20T05:18:43;9.40;99.90
49032;DHT22;63443;48.366;10.876;2023-03-20T05:21:08;9.50;99.90
49032;DHT22;63443;48.366;10.876;2023-03-20T05:23:34;9.50;99.90
49032;DHT22;63443;48.366;10.876;2023-03-20T05:26:00;9.50;99.90
49032;DHT22;63443;48.366;10.876;2023-03-20T05:28:26;9.50;99.90
49032;DHT22;63443;48.366;10.876;2023-03-20T05:30:52;9.50;99.90
49032;DHT22;63443;48.366;10.876;2023-03-20T05:33:17;9.50;99.90
49032;DHT22;63443;48.366;10.876;2023-03-20T05:35:43;9.50;99.90
49032;DHT22;63443;48.366;10.876;2023-03-20T05:38:09;9.50;99.90
49032;DHT22;63443;48.366;10.876;2023-03-20T05:40:34;9.60;99.90
49032;DHT22;63443;48.366;10.876;2023-03-20T05:43:00;9.60;99.90
49032;DHT22;63443;48.366;10.876;2023-03-20T05:45:25;9.60;99.90
49032;DHT22;63443;48.366;10.876;2023-03-20T05:47:51;9.70;99.90
49032;DHT22;63443;48.366;10.876;2023-03-20T05:50:16;9.70;99.90
49032;DHT22;63443;48.366;10.876;2023-03-20T05:52:42;9.60;99.90
49032;DHT22;63443;48.366;10.876;2023-03-20T05:55:10;9.60;99.90
49032;DHT22;63443;48.366;10.876;2023-03-20T05:57:36;9.60;99.90
49032;DHT22;63443;48.366;10.876;2023-03-20T06:00:02;9.60;99.90
49032;DHT22;63443;48.366;10.876;2023-03-20T06:02:28;9.60;99.90
49032;DHT22;63443;48.366;10.876;2023-03-20T06:04:53;9.50;99.90
49032;DHT22;63443;48.366;10.876;2023-03-20T06:07:19;9.50;99.90
49032;DHT22;63443;48.366;10.876;2023-03-20T06:09:44;9.50;99.90
49032;DHT22;63443;48.366;10.876;2023-03-20T06:12:10;9.40;99.90
49032;DHT22;63443;48.366;10.876;2023-03-20T06:14:36;9.40;99.90
49032;DHT22;63443;48.366;10.876;2023-03-20T06:17:02;9.30;99.90
49032;DHT22;63443;48.366;10.876;2023-03-20T06:19:27;9.30;99.90
49032;DHT22;63443;48.366;10.876;2023-03-20T06:21:53;9.40;99.90
49032;DHT22;63443;48.366;10.876;2023-03-20T06:24:18;9.40;99.90
49032;DHT22;63443;48.366;10.876;2023-03-20T06:26:44;9.50;99.90
49032;DHT22;63443;48.366;10.876;2023-03-20T06:29:09;9.40;99.90
49032;DHT22;63443;48.366;10.876;2023-03-20T06:31:35;9.50;99.90
49032;DHT22;63443;48.366;10.876;2023-03-20T06:34:00;9.60;99.90
49032;DHT22;63443;48.366;10.876;2023-03-20T06:36:26;9.60;99.90
49032;DHT22;63443;48.366;10.876;2023-03-20T06:38:52;9.70;99.90
49032;DHT22;63443;48.366;10.876;2023-03-20T06:41:20;9.70;99.90
49032;DHT22;63443;48.366;10.876;2023-03-20T06:43:45;9.80;99.90
49032;DHT22;63443;48.366;10.876;2023-03-20T06:46:11;9.90;99.90
49032;DHT22;63443;48.366;10.876;2023-03-20T06:48:36;10.00;99.90
49032;DHT22;63443;48.366;10.876;2023-03-20T06:51:02;10.10;99.90
49032;DHT22;63443;48.366;10.876;2023-03-20T06:53:28;10.20;99.90
49032;DHT22;63443;48.366;10.876;2023-03-20T06:55:53;10.20;99.90
49032;DHT22;63443;48.366;10.876;2023-03-20T06:58:19;10.30;99.90
49032;DHT22;63443;48.366;10.876;2023-03-20T07:00:44;10.40;99.90
49032;DHT22;63443;48.366;10.876;2023-03-20T07:03:10;10.60;99.90
49032;DHT22;63443;48.366;10.876;2023-03-20T07:05:36;10.70;99.90
49032;DHT22;63443;48.366;10.876;2023-03-20T07:08:03;10.80;99.90
49032;DHT22;63443;48.366;10.876;2023-03-20T07:10:28;11.10;99.90
49032;DHT22;63443;48.366;10.876;2023-03-20T07:12:54;11.30;99.90
49032;DHT22;63443;48.366;10.876;2023-03-20T07:15:19;11.20;99.90
49032;DHT22;63443;48.366;10.876;2023-03-20T07:17:45;11.20;99.90
49032;DHT22;63443;48.366;10.876;2023-03-20T07:20:11;11.10;99.90
49032;DHT22;63443;48.366;10.876;2023-03-20T07:22:37;11.00;99.90
49032;DHT22;63443;48.366;10.876;2023-03-20T07:25:04;11.00;99.90
49032;DHT22;63443;48.366;10.876;2023-03-20T07:27:30;11.00;99.90
49032;DHT22;63443;48.366;10.876;2023-03-20T07:29:55;11.00;99.90
49032;DHT22;63443;48.366;10.876;2023-03-20T07:32:21;11.10;99.90
49032;DHT22;63443;48.366;10.876;2023-03-20T07:34:46;11.10;99.90
49032;DHT22;63443;48.366;10.876;2023-03-20T07:37:13;11.10;99.90
49032;DHT22;63443;48.366;10.876;2023-03-20T07:39:39;11.10;99.90
49032;DHT22;63443;48.366;10.876;2023-03-20T07:42:04;11.10;99.90
49032;DHT22;63443;48.366;10.876;2023-03-20T07:44:30;11.10;99.90
49032;DHT22;63443;48.366;10.876;2023-03-20T07:46:56;11.10;99.90
49032;DHT22;63443;48.366;10.876;2023-03-20T07:49:21;11.10;99.90
49032;DHT22;63443;48.366;10.876;2023-03-20T07:51:48;11.10;99.90
49032;DHT22;63443;48.366;10.876;2023-03-20T07:54:13;11.10;99.90
49032;DHT22;63443;48.366;10.876;2023-03-20T07:56:39;11.10;99.90
49032;DHT22;63443;48.366;10.876;2023-03-20T07:59:05;11.30;99.90
49032;DHT22;63443;48.366;10.876;2023-03-20T08:01:30;11.30;99.90
49032;DHT22;63443;48.366;10.876;2023-03-20T08:03:56;11.40;99.90
49032;DHT22;63443;48.366;10.876;2023-03-20T08:06:21;11.50;99.90
49032;DHT22;63443;48.366;10.876;2023-03-20T08:08:47;11.50;99.90
49032;DHT22;63443;48.366;10.876;2023-03-20T08:11:16;11.50;99.90
49032;DHT22;63443;48.366;10.876;2023-03-20T08:13:41;11.60;99.90
49032;DHT22;63443;48.366;10.876;2023-03-20T08:16:07;11.60;99.90
49032;DHT22;63443;48.366;10.876;2023-03-20T08:18:32;11.60;99.90
49032;DHT22;63443;48.366;10.876;2023-03-20T08:20:58;11.70;99.90
49032;DHT22;63443;48.366;10.876;2023-03-20T08:23:23;11.60;99.90
49032;DHT22;63443;48.366;10.876;2023-03-20T08:25:49;11.70;99.90
49032;DHT22;63443;48.366;10.876;2023-03-20T08:28:15;11.70;99.90
49032;DHT22;63443;48.366;10.876;2023-03-20T08:30:41;11.80;99.90
49032;DHT22;63443;48.366;10.876;2023-03-20T08:33:06;11.80;99.90
49032;DHT22;63443;48.366;10.876;2023-03-20T08:35:32;11.90;99.90
49032;DHT22;63443;48.366;10.876;2023-03-20T08:37:57;12.00;99.90
49032;DHT22;63443;48.366;10.876;2023-03-20T08:40:23;12.00;99.90
49032;DHT22;63443;48.366;10.876;2023-03-20T08:42:48;12.10;99.90
49032;DHT22;63443;48.366;10.876;2023-03-20T08:45:14;12.10;99.90
49032;DHT22;63443;48.366;10.876;2023-03-20T08:47:39;12.20;99.90
49032;DHT22;63443;48.366;10.876;2023-03-20T08:50:05;12.20;99.90
49032;DHT22;63443;48.366;10.876;2023-03-20T08:52:32;12.20;99.90
49032;DHT22;63443;48.366;10.876;2023-03-20T08:54:57;12.00;99.90
49032;DHT22;63443;48.366;10.876;2023-03-20T08:57:22;12.10;99.90
49032;DHT22;63443;48.366;10.876;2023-03-20T08:59:48;12.00;99.90
49032;DHT22;63443;48.366;10.876;2023-03-20T09:02:13;12.00;99.90
49032;DHT22;63443;48.366;10.876;2023-03-20T09:04:39;11.90;99.90
49032;DHT22;63443;48.366;10.876;2023-03-20T09:07:05;11.70;99.90
49032;DHT22;63443;48.366;10.876;2023-03-20T09:09:31;11.60;99.90
49032;DHT22;63443;48.366;10.876;2023-03-20T09:11:56;11.50;99.90
49032;DHT22;63443;48.366;10.876;2023-03-20T09:14:23;11.50;99.90
49032;DHT22;63443;48.366;10.876;2023-03-20T09:16:48;11.60;99.90
49032;DHT22;63443;48.366;10.876;2023-03-20T09:19:15;11.60;99.90
49032;DHT22;63443;48.366;10.876;2023-03-20T09:21:40;11.70;99.90
49032;DHT22;63443;48.366;10.876;2023-03-20T09:24:06;11.80;99.90
49032;DHT22;63443;48.366;10.876;2023-03-20T09:26:32;11.90;99.90
49032;DHT22;63443;48.366;10.876;2023-03-20T09:28:57;11.90;99.90
49032;DHT22;63443;48.366;10.876;2023-03-20T09:31:23;11.90;99.90
49032;DHT22;63443;48.366;10.876;2023-03-20T09:33:48;11.90;99.90
49032;DHT22;63443;48.366;10.876;2023-03-20T09:36:13;11.80;99.90
49032;DHT22;63443;48.366;10.876;2023-03-20T09:38:40;11.90;99.90
49032;DHT22;63443;48.366;10.876;2023-03-20T09:41:06;12.00;99.90
49032;DHT22;63443;48.366;10.876;2023-03-20T09:43:42;12.10;99.90
49032;DHT22;63443;48.366;10.876;2023-03-20T09:51:30;12.60;99.90
49032;DHT22;63443;48.366;10.876;2023-03-20T09:54:01;12.70;99.90
49032;DHT22;63443;48.366;10.876;2023-03-20T09:56:29;13.00;99.90
49032;DHT22;63443;48.366;10.876;2023-03-20T09:58:59;13.10;99.90
49032;DHT22;63443;48.366;10.876;2023-03-20T10:01:26;13.30;99.60
49032;DHT22;63443;48.366;10.876;2023-03-20T10:03:55;13.30;99.40
49032;DHT22;63443;48.366;10.876;2023-03-20T10:06:21;13.40;99.10
49032;DHT22;63443;48.366;10.876;2023-03-20T10:08:46;13.40;99.10
49032;DHT22;63443;48.366;10.876;2023-03-20T10:14:19;13.40;98.90
49032;DHT22;63443;48.366;10.876;2023-03-20T10:17:03;13.30;98.50
49032;DHT22;63443;48.366;10.876;2023-03-20T10:19:51;13.30;98.50
49032;DHT22;63443;48.366;10.876;2023-03-20T10:22:36;13.40;98.00
49032;DHT22;63443;48.366;10.876;2023-03-20T10:27:49;13.30;98.20
49032;DHT22;63443;48.366;10.876;2023-03-20T10:41:18;13.40;97.60
49032;DHT22;63443;48.366;10.876;2023-03-20T10:43:46;13.30;97.80
49032;DHT22;63443;48.366;10.876;2023-03-20T10:46:14;13.20;97.60
49032;DHT22;63443;48.366;10.876;2023-03-20T10:49:03;13.10;97.60
49032;DHT22;63443;48.366;10.876;2023-03-20T10:51:38;13.00;97.50
49032;DHT22;63443;48.366;10.876;2023-03-20T10:54:04;12.90;97.10
49032;DHT22;63443;48.366;10.876;2023-03-20T10:56:43;12.90;97.40
49032;DHT22;63443;48.366;10.876;2023-03-20T11:01:55;12.90;97.50
49032;DHT22;63443;48.366;10.876;2023-03-20T11:04:21;13.00;97.70
49032;DHT22;63443;48.366;10.876;2023-03-20T11:09:17;12.90;97.10
49032;DHT22;63443;48.366;10.876;2023-03-20T11:11:44;12.80;97.00
49032;DHT22;63443;48.366;10.876;2023-03-20T11:14:20;12.80;97.00
49032;DHT22;63443;48.366;10.876;2023-03-20T11:16:47;12.70;97.40
49032;DHT22;63443;48.366;10.876;2023-03-20T11:19:14;12.70;97.50
49032;DHT22;63443;48.366;10.876;2023-03-20T11:21:46;12.70;97.60
49032;DHT22;63443;48.366;10.876;2023-03-20T11:24:46;12.70;97.30
49032;DHT22;63443;48.366;10.876;2023-03-20T11:27:05;12.70;97.00
49032;DHT22;63443;48.366;10.876;2023-03-20T11:29:31;12.70;97.20
49032;DHT22;63443;48.366;10.876;2023-03-20T11:34:39;12.60;97.90
49032;DHT22;63443;48.366;10.876;2023-03-20T11:42:33;12.90;96.80
49032;DHT22;63443;48.366;10.876;2023-03-20T11:45:03;13.00;96.30
49032;DHT22;63443;48.366;10.876;2023-03-20T11:47:30;13.00;96.30
49032;DHT22;63443;48.366;10.876;2023-03-20T11:49:58;13.00;96.80
49032;DHT22;63443;48.366;10.876;2023-03-20T11:52:45;13.10;97.10
49032;DHT22;63443;48.366;10.876;2023-03-20T11:55:23;13.10;96.10
49032;DHT22;63443;48.366;10.876;2023-03-20T11:57:49;13.20;95.70
49032;DHT22;63443;48.366;10.876;2023-03-20T12:00:23;13.20;95.80
49032;DHT22;63443;48.366;10.876;2023-03-20T12:02:50;13.30;96.00
49032;DHT22;63443;48.366;10.876;2023-03-20T12:05:33;13.40;95.30
49032;DHT22;63443;48.366;10.876;2023-03-20T12:08:12;13.40;94.90
49032;DHT22;63443;48.366;10.876;2023-03-20T12:10:41;13.50;94.10
49032;DHT22;63443;48.366;10.876;2023-03-20T12:13:15;13.70;93.50
49032;DHT22;63443;48.366;10.876;2023-03-20T12:15:45;14.00;93.10
49032;DHT22;63443;48.366;10.876;2023-03-20T12:18:16;14.30;92.20
49032;DHT22;63443;48.366;10.876;2023-03-20T12:31:14;14.50;92.70
49032;DHT22;63443;48.366;10.876;2023-03-20T12:33:43;14.60;92.00
49032;DHT22;63443;48.366;10.876;2023-03-20T12:36:13;14.50;90.30
49032;DHT22;63443;48.366;10.876;2023-03-20T12:38:39;14.20;89.70
49032;DHT22;63443;48.366;10.876;2023-03-20T12:41:24;14.10;90.20
49032;DHT22;63443;48.366;10.876;2023-03-20T12:46:31;13.60;90.50
49032;DHT22;63443;48.366;10.876;2023-03-20T12:51:32;13.30;91.20
49032;DHT22;63443;48.366;10.876;2023-03-20T12:56:43;13.20;91.50
49032;DHT22;63443;48.366;10.876;2023-03-20T13:01:45;13.10;92.30
49032;DHT22;63443;48.366;10.876;2023-03-20T13:06:55;12.90;93.20
49032;DHT22;63443;48.366;10.876;2023-03-20T13:17:13;12.90;94.40
49032;DHT22;63443;48.366;10.876;2023-03-20T13:19:45;13.00;94.40
49032;DHT22;63443;48.366;10.876;2023-03-20T13:22:16;13.00;94.50
49032;DHT22;63443;48.366;10.876;2023-03-20T13:24:46;13.00;94.70
49032;DHT22;63443;48.366;10.876;2023-03-20T13:32:32;13.00;95.20
49032;DHT22;63443;48.366;10.876;2023-03-20T13:35:15;13.10;95.60
49032;DHT22;63443;48.366;10.876;2023-03-20T13:37:47;13.10;95.90
49032;DHT22;63443;48.366;10.876;2023-03-20T13:43:22;13.10;95.80
49032;DHT22;63443;48.366;10.876;2023-03-20T13:45:35;13.10;96.00
49032;DHT22;63443;48.366;10.876;2023-03-20T13:48:04;13.00;95.50
49032;DHT22;63443;48.366;10.876;2023-03-20T13:53:22;12.90;95.30
49032;DHT22;63443;48.366;10.876;2023-03-20T13:55:55;12.90;95.30
49032;DHT22;63443;48.366;10.876;2023-03-20T13:58:27;12.90;95.30
49032;DHT22;63443;48.366;10.876;2023-03-20T14:03:37;12.90;95.00
49032;DHT22;63443;48.366;10.876;2023-03-20T14:09:04;12.90;94.90
49032;DHT22;63443;48.366;10.876;2023-03-20T14:11:48;12.90;94.70
49032;DHT22;63443;48.366;10.876;2023-03-20T14:14:14;13.00;94.70
49032;DHT22;63443;48.366;10.876;2023-03-20T14:16:42;13.00;94.50
49032;DHT22;63443;48.366;10.876;2023-03-20T14:19:15;13.10;94.50
49032;DHT22;63443;48.366;10.876;2023-03-20T14:21:45;13.10;94.40
49032;DHT22;63443;48.366;10.876;2023-03-20T14:24:11;13.20;94.40
49032;DHT22;63443;48.366;10.876;2023-03-20T14:26:37;13.20;94.50
49032;DHT22;63443;48.366;10.876;2023-03-20T14:31:34;13.10;94.20
49032;DHT22;63443;48.366;10.876;2023-03-20T14:36:55;13.00;94.60
49032;DHT22;63443;48.366;10.876;2023-03-20T14:47:19;17.50;83.70
49032;DHT22;63443;48.366;10.876;2023-03-20T14:50:02;17.70;78.20
49032;DHT22;63443;48.366;10.876;2023-03-20T14:55:12;19.30;71.20
49032;DHT22;63443;48.366;10.876;2023-03-20T14:57:38;19.10;70.30
49032;DHT22;63443;48.366;10.876;2023-03-20T15:00:04;22.70;64.80
49032;DHT22;63443;48.366;10.876;2023-03-20T15:02:33;23.80;58.10
49032;DHT22;63443;48.366;10.876;2023-03-20T15:04:59;24.70;55.20
49032;DHT22;63443;48.366;10.876;2023-03-20T15:07:29;26.10;52.40
49032;DHT22;63443;48.366;10.876;2023-03-20T15:09:56;27.20;49.70
49032;DHT22;63443;48.366;10.876;2023-03-20T15:12:29;27.80;47.40
49032;DHT22;63443;48.366;10.876;2023-03-20T15:14:59;26.80;47.00
49032;DHT22;63443;48.366;10.876;2023-03-20T15:17:27;24.90;48.30
49032;DHT22;63443;48.366;10.876;2023-03-20T15:20:00;23.80;50.00
49032;DHT22;63443;48.366;10.876;2023-03-20T15:22:26;23.10;50.00
49032;DHT22;63443;48.366;10.876;2023-03-20T15:24:55;22.50;50.60
49032;DHT22;63443;48.366;10.876;2023-03-20T15:27:21;21.70;51.20
49032;DHT22;63443;48.366;10.876;2023-03-20T15:29:49;22.20;51.70
49032;DHT22;63443;48.366;10.876;2023-03-20T15:32:15;21.80;51.70
49032;DHT22;63443;48.366;10.876;2023-03-20T15:34:41;21.00;52.40
49032;DHT22;63443;48.366;10.876;2023-03-20T15:37:08;20.70;53.70
49032;DHT22;63443;48.366;10.876;2023-03-20T15:39:46;19.90;54.70
49032;DHT22;63443;48.366;10.876;2023-03-20T15:42:13;19.30;56.20
49032;DHT22;63443;48.366;10.876;2023-03-20T15:44:40;18.70;57.20
49032;DHT22;63443;48.366;10.876;2023-03-20T15:49:34;17.80;58.70
49032;DHT22;63443;48.366;10.876;2023-03-20T15:52:02;17.40;59.90
49032;DHT22;63443;48.366;10.876;2023-03-20T15:54:28;16.90;61.20
49032;DHT22;63443;48.366;10.876;2023-03-20T15:56:56;16.70;62.30
49032;DHT22;63443;48.366;10.876;2023-03-20T15:59:25;16.60;63.00
49032;DHT22;63443;48.366;10.876;2023-03-20T16:01:55;16.40;61.80
49032;DHT22;63443;48.366;10.876;2023-03-20T16:04:21;16.10;61.90
49032;DHT22;63443;48.366;10.876;2023-03-20T16:06:52;15.90;62.30
49032;DHT22;63443;48.366;10.876;2023-03-20T16:09:18;16.00;63.00
49032;DHT22;63443;48.366;10.876;2023-03-20T16:11:59;15.80;62.90
49032;DHT22;63443;48.366;10.876;2023-03-20T16:14:27;15.80;63.10
49032;DHT22;63443;48.366;10.876;2023-03-20T16:16:55;15.50;63.50
49032;DHT22;63443;48.366;10.876;2023-03-20T16:19:24;15.30;64.50
49032;DHT22;63443;48.366;10.876;2023-03-20T16:22:00;15.20;64.80
49032;DHT22;63443;48.366;10.876;2023-03-20T16:24:35;15.30;64.90
49032;DHT22;63443;48.366;10.876;2023-03-20T16:27:06;15.50;64.20
49032;DHT22;63443;48.366;10.876;2023-03-20T16:29:33;15.70;64.30
49032;DHT22;63443;48.366;10.876;2023-03-20T16:32:05;16.50;63.10
49032;DHT22;63443;48.366;10.876;2023-03-20T16:34:34;17.00;61.70
49032;DHT22;63443;48.366;10.876;2023-03-20T16:37:06;17.10;60.80
49032;DHT22;63443;48.366;10.876;2023-03-20T16:39:32;16.70;61.40
49032;DHT22;63443;48.366;10.876;2023-03-20T16:44:35;15.70;63.70
49032;DHT22;63443;48.366;10.876;2023-03-20T16:47:17;15.40;64.50
49032;DHT22;63443;48.366;10.876;2023-03-20T16:52:25;14.80;66.70
49032;DHT22;63443;48.366;10.876;2023-03-20T16:54:51;14.50;67.80
49032;DHT22;63443;48.366;10.876;2023-03-20T16:57:18;14.20;68.90
49032;DHT22;63443;48.366;10.876;2023-03-20T16:59:44;14.10;69.40
49032;DHT22;63443;48.366;10.876;2023-03-20T17:02:23;13.90;70.10
49032;DHT22;63443;48.366;10.876;2023-03-20T17:04:54;13.80;70.40
49032;DHT22;63443;48.366;10.876;2023-03-20T17:07:21;13.70;71.20
49032;DHT22;63443;48.366;10.876;2023-03-20T17:12:34;13.50;72.70
49032;DHT22;63443;48.366;10.876;2023-03-20T17:15:02;13.40;73.20
49032;DHT22;63443;48.366;10.876;2023-03-20T17:17:28;13.30;73.50
49032;DHT22;63443;48.366;10.876;2023-03-20T17:19:53;13.20;73.80
49032;DHT22;63443;48.366;10.876;2023-03-20T17:22:21;13.10;74.60
49032;DHT22;63443;48.366;10.876;2023-03-20T17:24:46;13.10;75.40
49032;DHT22;63443;48.366;10.876;2023-03-20T17:27:14;13.10;75.80
49032;DHT22;63443;48.366;10.876;2023-03-20T17:29:41;13.00;76.30
49032;DHT22;63443;48.366;10.876;2023-03-20T17:32:11;13.00;77.10
49032;DHT22;63443;48.366;10.876;2023-03-20T17:34:37;12.80;77.90
49032;DHT22;63443;48.366;10.876;2023-03-20T17:37:03;12.70;79.00
49032;DHT22;63443;48.366;10.876;2023-03-20T17:39:29;12.70;79.60
49032;DHT22;63443;48.366;10.876;2023-03-20T17:41:54;12.60;80.40
49032;DHT22;63443;48.366;10.876;2023-03-20T17:44:20;12.50;81.20
49032;DHT22;63443;48.366;10.876;2023-03-20T17:46:47;12.50;82.20
49032;DHT22;63443;48.366;10.876;2023-03-20T17:49:14;12.40;83.00